createdAt,value
2023-04-08T00:00:31.814Z,7.04
2023-04-08T00:03:05.157Z,7.06
2023-04-08T00:05:38.064Z,7.05
2023-04-08T00:08:10.938Z,7.04
2023-04-08T00:10:43.785Z,7.01
2023-04-08T00:13:18.511Z,6.99
2023-04-08T00:15:52.402Z,6.94
2023-04-08T00:18:25.276Z,6.89
2023-04-08T00:20:58.249Z,6.88
2023-04-08T00:23:31.106Z,6.87
2023-04-08T00:26:21.551Z,6.91
2023-04-08T00:28:56.272Z,6.85
2023-04-08T00:31:29.238Z,6.84
2023-04-08T00:34:05.149Z,6.80
2023-04-08T00:36:38.019Z,6.79
2023-04-08T00:39:11.297Z,6.82
2023-04-08T00:41:44.262Z,6.82
2023-04-08T00:44:21.392Z,6.80
2023-04-08T00:46:54.252Z,6.83
2023-04-08T00:49:27.513Z,6.83
2023-04-08T00:52:00.585Z,6.85
2023-04-08T00:54:33.484Z,6.84
2023-04-08T00:57:07.065Z,6.85
2023-04-08T00:59:42.018Z,6.84
2023-04-08T01:02:30.003Z,6.79
2023-04-08T01:05:06.502Z,6.78
2023-04-08T01:07:45.808Z,6.77
2023-04-08T01:10:23.375Z,6.76
2023-04-08T01:12:58.251Z,6.76
2023-04-08T01:15:35.484Z,6.73
2023-04-08T01:18:10.609Z,6.70
2023-04-08T01:20:44.311Z,6.66
2023-04-08T01:23:24.036Z,6.66
2023-04-08T01:25:58.654Z,6.62
2023-04-08T01:28:34.735Z,6.62
2023-04-08T01:31:09.214Z,6.63
2023-04-08T01:33:42.877Z,6.62
2023-04-08T01:36:16.888Z,6.58
2023-04-08T01:38:50.498Z,6.67
2023-04-08T01:41:25.161Z,6.55
2023-04-08T01:43:59.211Z,6.51
2023-04-08T01:46:33.570Z,6.48
2023-04-08T01:49:07.601Z,6.47
2023-04-08T01:51:42.468Z,6.46
2023-04-08T01:54:15.406Z,6.47
2023-04-08T01:56:52.187Z,6.49
2023-04-08T01:59:32.709Z,6.52
2023-04-08T02:02:09.986Z,6.53
2023-04-08T02:04:43.094Z,6.54
2023-04-08T02:07:16.644Z,6.57
2023-04-08T02:09:49.787Z,6.71
2023-04-08T02:12:24.303Z,6.62
2023-04-08T02:14:58.632Z,6.62
2023-04-08T02:17:37.470Z,6.64
2023-04-08T02:20:14.647Z,6.66
2023-04-08T02:22:51.645Z,6.66
2023-04-08T02:25:26.364Z,6.67
2023-04-08T02:28:02.416Z,6.69
2023-04-08T02:30:36.794Z,6.70
2023-04-08T02:33:09.955Z,6.75
2023-04-08T02:35:44.350Z,6.76
2023-04-08T02:38:17.247Z,6.78
2023-04-08T02:40:51.131Z,6.78
2023-04-08T02:43:29.862Z,6.88
2023-04-08T02:46:04.236Z,6.78
2023-04-08T02:48:37.344Z,6.73
2023-04-08T02:51:10.241Z,6.71
2023-04-08T02:53:43.223Z,6.71
2023-04-08T02:56:16.140Z,6.70
2023-04-08T02:58:52.306Z,6.68
2023-04-08T03:01:25.942Z,6.65
2023-04-08T03:03:58.852Z,6.65
2023-04-08T03:06:32.222Z,6.64
2023-04-08T03:09:05.913Z,6.58
2023-04-08T03:11:38.714Z,6.57
2023-04-08T03:14:12.835Z,6.53
2023-04-08T03:16:45.745Z,6.50
2023-04-08T03:19:18.618Z,6.49
2023-04-08T03:21:51.450Z,6.47
2023-04-08T03:24:24.417Z,6.46
2023-04-08T03:26:57.224Z,6.44
2023-04-08T03:29:31.418Z,6.42
2023-04-08T03:32:04.437Z,6.40
2023-04-08T03:34:37.247Z,6.41
2023-04-08T03:37:10.058Z,6.41
2023-04-08T03:39:42.923Z,6.38
2023-04-08T03:42:15.889Z,6.38
2023-04-08T03:44:50.123Z,6.39
2023-04-08T03:47:23.060Z,6.41
2023-04-08T03:49:59.727Z,6.40
2023-04-08T03:52:32.541Z,6.41
2023-04-08T03:55:06.169Z,6.41
2023-04-08T03:57:38.948Z,6.43
2023-04-08T04:00:14.463Z,6.43
2023-04-08T04:02:47.348Z,6.44
2023-04-08T04:05:20.495Z,6.46
2023-04-08T04:07:53.343Z,6.47
2023-04-08T04:10:26.328Z,6.47
2023-04-08T04:12:59.214Z,6.43
2023-04-08T04:15:33.424Z,6.42
2023-04-08T04:18:06.431Z,6.40
2023-04-08T04:20:42.459Z,6.38
2023-04-08T04:23:15.265Z,6.35
2023-04-08T04:25:48.053Z,6.34
2023-04-08T04:28:20.835Z,6.36
2023-04-08T04:30:56.572Z,6.38
2023-04-08T04:33:29.716Z,6.40
2023-04-08T04:36:02.912Z,6.44
2023-04-08T04:38:35.920Z,6.47
2023-04-08T04:41:08.793Z,6.50
2023-04-08T04:43:41.708Z,6.50
2023-04-08T04:46:16.132Z,6.46
2023-04-08T04:48:49.144Z,6.43
2023-04-08T04:51:22.088Z,6.39
2023-04-08T04:53:54.889Z,6.34
2023-04-08T04:56:27.865Z,6.28
2023-04-08T04:59:00.710Z,6.22
2023-04-08T05:01:35.064Z,6.19
2023-04-08T05:04:08.255Z,6.17
2023-04-08T05:06:41.434Z,6.15
2023-04-08T05:09:14.204Z,6.15
2023-04-08T05:11:47.003Z,6.16
2023-04-08T05:14:19.794Z,6.17
2023-04-08T05:16:53.924Z,6.19
2023-04-08T05:19:26.839Z,6.24
2023-04-08T05:21:59.750Z,6.30
2023-04-08T05:24:32.605Z,6.35
2023-04-08T05:27:05.484Z,6.44
2023-04-08T05:29:38.394Z,6.53
2023-04-08T05:32:12.549Z,6.61
2023-04-08T05:34:45.709Z,6.69
2023-04-08T05:37:18.485Z,6.80
2023-04-08T05:39:51.352Z,6.89
2023-04-08T05:42:27.383Z,7.02
2023-04-08T05:45:00.388Z,7.13
2023-04-08T05:47:34.629Z,7.26
2023-04-08T05:50:08.914Z,7.39
2023-04-08T05:52:45.776Z,7.52
2023-04-08T05:55:18.629Z,7.62
2023-04-08T05:57:51.431Z,7.76
2023-04-08T06:00:24.216Z,7.86
2023-04-08T06:02:58.465Z,7.98
2023-04-08T06:05:32.613Z,8.12
2023-04-08T06:08:06.082Z,8.27
2023-04-08T06:10:38.939Z,8.40
2023-04-08T06:13:11.733Z,8.50
2023-04-08T06:15:44.640Z,8.61
2023-04-08T06:18:19.136Z,8.75
2023-04-08T06:20:52.023Z,8.90
2023-04-08T06:23:24.903Z,9.05
2023-04-08T06:25:57.738Z,9.19
2023-04-08T06:28:30.793Z,9.34
2023-04-08T06:31:03.599Z,9.48
2023-04-08T06:33:37.763Z,9.62
2023-04-08T06:36:11.284Z,9.77
2023-04-08T06:38:44.102Z,9.93
2023-04-08T06:41:16.950Z,10.06
2023-04-08T06:43:49.850Z,10.22
2023-04-08T06:46:22.776Z,10.37
2023-04-08T06:48:57.098Z,10.50
2023-04-08T06:51:29.963Z,10.66
2023-04-08T06:54:02.773Z,10.83
2023-04-08T06:56:35.588Z,10.92
2023-04-08T06:59:08.397Z,11.02
2023-04-08T07:01:41.764Z,11.14
2023-04-08T07:04:16.091Z,11.30
2023-04-08T07:06:49.016Z,11.48
2023-04-08T07:09:21.849Z,11.66
2023-04-08T07:11:54.744Z,11.73
2023-04-08T07:14:27.570Z,11.83
2023-04-08T07:17:00.638Z,11.98
2023-04-08T07:19:34.956Z,12.13
2023-04-08T07:22:07.737Z,12.31
2023-04-08T07:24:42.893Z,12.50
2023-04-08T07:27:15.852Z,12.65
2023-04-08T07:29:53.260Z,12.84
2023-04-08T07:32:26.183Z,13.02
2023-04-08T07:35:01.780Z,13.23
2023-04-08T07:37:34.634Z,13.41
2023-04-08T07:40:08.859Z,13.63
2023-04-08T07:42:41.742Z,13.81
2023-04-08T07:45:14.555Z,14.03
2023-04-08T07:47:47.497Z,14.24
2023-04-08T07:50:21.772Z,14.48
2023-04-08T07:52:54.858Z,14.77
2023-04-08T07:55:27.684Z,15.04
2023-04-08T07:58:01.294Z,15.36
2023-04-08T08:00:34.110Z,15.70
2023-04-08T08:03:06.960Z,15.92
2023-04-08T08:05:41.437Z,16.24
2023-04-08T08:08:14.250Z,16.65
2023-04-08T08:10:47.120Z,17.17
2023-04-08T08:13:22.097Z,17.75
2023-04-08T08:15:55.088Z,18.34
2023-04-08T08:18:27.933Z,19.01
2023-04-08T08:21:02.747Z,19.90
2023-04-08T08:23:35.552Z,20.62
2023-04-08T08:26:10.719Z,21.76
2023-04-08T08:28:43.618Z,22.78
2023-04-08T08:31:16.447Z,23.71
2023-04-08T08:33:49.434Z,24.69
2023-04-08T08:36:23.699Z,25.79
2023-04-08T08:38:56.520Z,26.64
2023-04-08T08:41:35.284Z,27.65
2023-04-08T08:44:08.975Z,28.49
2023-04-08T08:46:45.450Z,29.23
2023-04-08T08:49:18.542Z,29.88
2023-04-08T08:51:55.908Z,30.45
2023-04-08T08:54:28.893Z,30.91
2023-04-08T08:57:01.755Z,31.49
2023-04-08T08:59:34.982Z,32.29
2023-04-08T09:02:24.235Z,32.84
2023-04-08T09:04:59.633Z,33.19
2023-04-08T09:07:38.142Z,33.42
2023-04-08T09:10:11.683Z,33.54
2023-04-08T09:12:55.960Z,33.73
2023-04-08T09:15:29.022Z,33.61
2023-04-08T09:18:02.313Z,33.59
2023-04-08T09:20:35.641Z,33.59
2023-04-08T09:23:09.803Z,33.41
2023-04-08T09:25:42.609Z,33.07
2023-04-08T09:28:21.293Z,33.02
2023-04-08T09:30:54.088Z,33.08
2023-04-08T09:33:32.336Z,33.34
2023-04-08T09:36:05.267Z,33.92
2023-04-08T09:38:39.622Z,34.53
2023-04-08T09:41:16.831Z,35.16
2023-04-08T09:43:52.477Z,35.88
2023-04-08T09:46:28.796Z,36.33
2023-04-08T09:49:07.393Z,36.87
2023-04-08T09:51:44.733Z,37.40
2023-04-08T09:54:23.155Z,37.87
2023-04-08T09:57:10.722Z,37.79
2023-04-08T09:59:58.736Z,37.87
2023-04-08T10:02:42.180Z,37.93
2023-04-08T10:05:16.930Z,37.70
2023-04-08T10:07:51.385Z,37.82
2023-04-08T10:10:27.213Z,38.05
2023-04-08T10:13:00.480Z,38.15
2023-04-08T10:15:34.152Z,38.29
2023-04-08T10:18:33.833Z,37.13
2023-04-08T10:21:27.183Z,35.31
2023-04-08T10:24:05.948Z,35.78
2023-04-08T10:26:42.279Z,36.50
2023-04-08T10:29:34.723Z,35.24
2023-04-08T10:32:07.745Z,34.37
2023-04-08T10:34:54.572Z,32.54
2023-04-08T10:37:27.482Z,32.98
2023-04-08T10:40:00.407Z,33.88
2023-04-08T10:42:34.628Z,34.92
2023-04-08T10:45:08.498Z,35.88
2023-04-08T10:47:41.780Z,36.77
2023-04-08T10:50:16.520Z,37.68
2023-04-08T10:52:50.057Z,38.49
2023-04-08T10:55:24.964Z,38.99
2023-04-08T10:58:07.019Z,39.36
2023-04-08T11:00:41.114Z,39.41
2023-04-08T11:03:15.672Z,38.76
2023-04-08T11:05:50.954Z,37.83
2023-04-08T11:08:29.100Z,38.07
2023-04-08T11:11:02.525Z,38.49
2023-04-08T11:13:37.194Z,38.96
2023-04-08T11:16:18.094Z,39.41
2023-04-08T11:18:55.565Z,39.44
2023-04-08T11:21:29.674Z,38.02
2023-04-08T11:24:02.495Z,37.28
2023-04-08T11:26:35.682Z,35.35
2023-04-08T11:29:12.797Z,33.60
2023-04-08T11:31:47.333Z,32.82
2023-04-08T11:34:24.163Z,31.17
2023-04-08T11:36:58.711Z,29.99
2023-04-08T11:39:32.159Z,29.67
2023-04-08T11:42:05.167Z,29.12
2023-04-08T11:44:40.486Z,28.11
2023-04-08T11:47:13.346Z,27.48
2023-04-08T11:49:46.296Z,27.52
2023-04-08T11:52:19.107Z,27.53
2023-04-08T11:54:51.912Z,27.02
2023-04-08T11:57:30.496Z,27.96
2023-04-08T12:00:06.718Z,28.02
2023-04-08T12:02:47.147Z,28.36
2023-04-08T12:05:20.532Z,28.57
2023-04-08T12:07:53.454Z,28.55
2023-04-08T12:10:26.555Z,28.52
2023-04-08T12:12:59.474Z,28.37
2023-04-08T12:15:33.875Z,28.11
2023-04-08T12:18:06.883Z,27.80
2023-04-08T12:20:39.849Z,27.58
2023-04-08T12:23:12.710Z,27.27
2023-04-08T12:25:45.587Z,27.00
2023-04-08T12:28:18.225Z,26.57
2023-04-08T12:30:52.579Z,26.28
2023-04-08T12:33:25.431Z,26.20
2023-04-08T12:35:59.298Z,26.17
2023-04-08T12:38:33.488Z,26.05
2023-04-08T12:41:07.754Z,25.65
2023-04-08T12:43:42.195Z,24.93
2023-04-08T12:46:16.636Z,24.28
2023-04-08T12:48:56.556Z,23.55
2023-04-08T12:51:36.740Z,22.98
2023-04-08T12:54:09.757Z,22.64
2023-04-08T12:56:43.319Z,22.07
2023-04-08T12:59:16.333Z,21.68
2023-04-08T13:01:50.774Z,21.28
2023-04-08T13:04:52.576Z,20.50
2023-04-08T13:07:27.256Z,19.81
2023-04-08T13:10:08.097Z,19.34
2023-04-08T13:12:42.660Z,19.09
2023-04-08T13:15:23.203Z,19.02
2023-04-08T13:18:00.122Z,19.13
2023-04-08T13:20:33.613Z,19.24
2023-04-08T13:23:06.298Z,19.34
2023-04-08T13:25:39.156Z,19.15
2023-04-08T13:28:12.073Z,19.00
2023-04-08T13:30:44.984Z,18.95
2023-04-08T13:33:19.157Z,18.88
2023-04-08T13:35:52.044Z,18.88
2023-04-08T13:38:25.037Z,18.91
2023-04-08T13:40:57.851Z,18.92
2023-04-08T13:43:30.664Z,19.00
2023-04-08T13:46:03.621Z,19.00
2023-04-08T13:48:38.233Z,18.97
2023-04-08T13:51:11.251Z,18.98
2023-04-08T13:53:44.188Z,18.97
2023-04-08T13:56:17.004Z,18.93
2023-04-08T13:58:56.766Z,18.77
2023-04-08T14:01:30.542Z,18.66
2023-04-08T14:04:04.924Z,18.57
2023-04-08T14:06:37.859Z,18.49
2023-04-08T14:09:10.799Z,18.37
2023-04-08T14:11:43.675Z,18.16
2023-04-08T14:14:16.791Z,18.01
2023-04-08T14:16:49.756Z,17.97
2023-04-08T14:19:25.918Z,18.02
2023-04-08T14:21:58.748Z,18.09
2023-04-08T14:24:31.590Z,18.08
2023-04-08T14:27:04.945Z,17.94
2023-04-08T14:29:37.812Z,17.79
2023-04-08T14:32:10.596Z,17.58
2023-04-08T14:34:44.823Z,17.31
2023-04-08T14:37:18.987Z,16.99
2023-04-08T14:39:51.818Z,16.81
2023-04-08T14:42:24.799Z,16.71
2023-04-08T14:44:58.644Z,16.67
2023-04-08T14:47:31.641Z,16.66
2023-04-08T14:50:07.797Z,16.70
2023-04-08T14:52:40.683Z,16.76
2023-04-08T14:55:13.677Z,16.83
2023-04-08T14:57:46.636Z,16.80
2023-04-08T15:00:19.459Z,16.62
2023-04-08T15:02:52.417Z,16.47
2023-04-08T15:05:26.827Z,16.40
2023-04-08T15:07:59.801Z,16.30
2023-04-08T15:10:33.018Z,16.19
2023-04-08T15:13:05.899Z,16.11
2023-04-08T15:15:38.706Z,16.07
2023-04-08T15:18:11.640Z,15.97
2023-04-08T15:20:46.048Z,15.88
2023-04-08T15:23:18.847Z,15.84
2023-04-08T15:25:51.946Z,15.84
2023-04-08T15:28:24.915Z,15.88
2023-04-08T15:30:57.717Z,15.95
2023-04-08T15:33:30.808Z,15.95
2023-04-08T15:36:06.518Z,16.00
2023-04-08T15:38:39.925Z,16.08
2023-04-08T15:41:22.156Z,16.07
2023-04-08T15:43:58.116Z,15.96
2023-04-08T15:46:31.637Z,15.91
2023-04-08T15:49:04.653Z,15.84
2023-04-08T15:51:38.923Z,15.73
2023-04-08T15:54:11.878Z,15.57
2023-04-08T15:56:46.569Z,15.47
2023-04-08T15:59:19.428Z,15.42
2023-04-08T16:01:52.711Z,15.37
2023-04-08T16:04:25.986Z,15.32
2023-04-08T16:07:00.324Z,15.25
2023-04-08T16:09:33.210Z,15.24
2023-04-08T16:12:06.148Z,15.23
2023-04-08T16:14:39.722Z,15.21
2023-04-08T16:17:12.578Z,15.25
2023-04-08T16:19:45.421Z,15.10
2023-04-08T16:22:19.688Z,15.04
2023-04-08T16:24:53.074Z,15.01
2023-04-08T16:27:26.058Z,14.98
2023-04-08T16:29:58.871Z,14.96
2023-04-08T16:32:31.756Z,14.96
2023-04-08T16:35:04.857Z,14.91
2023-04-08T16:37:39.317Z,14.88
2023-04-08T16:40:12.730Z,14.88
2023-04-08T16:42:46.093Z,14.87
2023-04-08T16:45:19.139Z,14.86
2023-04-08T16:47:52.156Z,14.79
2023-04-08T16:50:25.602Z,14.72
2023-04-08T16:52:59.795Z,14.68
2023-04-08T16:55:34.195Z,14.63
2023-04-08T16:58:07.399Z,14.54
2023-04-08T17:00:40.394Z,14.51
2023-04-08T17:03:13.506Z,14.45
2023-04-08T17:05:46.641Z,14.40
2023-04-08T17:08:21.492Z,14.45
2023-04-08T17:10:54.306Z,14.31
2023-04-08T17:13:27.388Z,14.24
2023-04-08T17:16:00.187Z,14.23
2023-04-08T17:18:33.058Z,14.19
2023-04-08T17:21:06.800Z,14.15
2023-04-08T17:23:40.935Z,14.25
2023-04-08T17:26:13.904Z,14.13
2023-04-08T17:28:46.781Z,14.10
2023-04-08T17:31:19.612Z,14.08
2023-04-08T17:33:52.579Z,14.09
2023-04-08T17:36:25.765Z,14.12
2023-04-08T17:38:59.963Z,14.15
2023-04-08T17:41:39.862Z,14.16
2023-04-08T17:44:13.947Z,14.16
2023-04-08T17:46:47.089Z,14.17
2023-04-08T17:49:19.937Z,14.18
2023-04-08T17:51:52.941Z,14.17
2023-04-08T17:54:27.186Z,14.17
2023-04-08T17:57:00.052Z,14.17
2023-04-08T17:59:32.902Z,14.19
2023-04-08T18:02:06.178Z,14.20
2023-04-08T18:04:39.258Z,14.17
2023-04-08T18:07:12.112Z,14.13
2023-04-08T18:09:48.676Z,14.09
2023-04-08T18:12:21.560Z,14.04
2023-04-08T18:14:54.386Z,14.02
2023-04-08T18:17:27.721Z,13.98
2023-04-08T18:20:00.559Z,13.97
2023-04-08T18:22:34.154Z,13.95
2023-04-08T18:25:09.015Z,13.94
2023-04-08T18:27:41.862Z,13.91
2023-04-08T18:30:14.760Z,13.89
2023-04-08T18:32:47.634Z,13.89
2023-04-08T18:35:20.486Z,13.87
2023-04-08T18:37:53.388Z,13.83
2023-04-08T18:40:28.003Z,13.77
2023-04-08T18:43:03.514Z,13.71
2023-04-08T18:45:36.664Z,13.66
2023-04-08T18:48:09.634Z,13.64
2023-04-08T18:50:42.451Z,13.62
2023-04-08T18:53:15.436Z,13.58
2023-04-08T18:55:51.223Z,13.55
2023-04-08T18:58:24.237Z,13.52
2023-04-08T19:00:57.051Z,13.46
2023-04-08T19:03:29.922Z,13.42
2023-04-08T19:06:06.227Z,13.39
2023-04-08T19:08:39.142Z,13.39
2023-04-08T19:11:13.351Z,13.36
2023-04-08T19:13:46.476Z,13.33
2023-04-08T19:16:19.612Z,13.33
2023-04-08T19:18:52.847Z,13.31
2023-04-08T19:21:27.244Z,13.29
2023-04-08T19:24:00.162Z,13.27
2023-04-08T19:26:34.720Z,13.24
2023-04-08T19:29:09.386Z,13.20
2023-04-08T19:31:42.424Z,13.15
2023-04-08T19:34:15.426Z,13.12
2023-04-08T19:36:54.068Z,13.07
2023-04-08T19:39:42.298Z,12.99
2023-04-08T19:42:28.946Z,12.97
2023-04-08T19:45:21.521Z,12.96
2023-04-08T19:48:02.915Z,12.95
2023-04-08T19:50:41.416Z,12.95
2023-04-08T19:53:19.087Z,12.96
2023-04-08T19:56:13.880Z,13.02
2023-04-08T19:58:55.776Z,13.04
2023-04-08T20:01:28.631Z,13.04
2023-04-08T20:04:01.541Z,13.04
2023-04-08T20:06:45.589Z,13.05
2023-04-08T20:09:18.380Z,13.19
2023-04-08T20:11:51.227Z,13.09
2023-04-08T20:14:25.522Z,13.06
2023-04-08T20:16:58.502Z,13.01
2023-04-08T20:19:31.670Z,12.94
2023-04-08T20:22:05.498Z,12.83
2023-04-08T20:24:38.615Z,12.73
2023-04-08T20:27:13.298Z,12.62
2023-04-08T20:29:49.993Z,12.57
2023-04-08T20:32:23.008Z,12.49
2023-04-08T20:34:56.178Z,12.42
2023-04-08T20:37:29.002Z,12.35
2023-04-08T20:40:02.423Z,12.31
2023-04-08T20:42:35.830Z,12.28
2023-04-08T20:45:11.703Z,12.20
2023-04-08T20:47:47.467Z,12.10
2023-04-08T20:50:20.528Z,12.01
2023-04-08T20:52:53.613Z,11.92
2023-04-08T20:55:26.830Z,11.86
2023-04-08T20:58:00.592Z,11.81
2023-04-08T21:00:35.153Z,11.73
2023-04-08T21:03:08.196Z,11.64
2023-04-08T21:05:41.072Z,11.54
2023-04-08T21:08:14.233Z,11.48
2023-04-08T21:10:49.571Z,11.50
2023-04-08T21:13:22.466Z,11.52
2023-04-08T21:15:59.102Z,11.54
2023-04-08T21:18:32.222Z,11.54
2023-04-08T21:21:07.753Z,11.55
2023-04-08T21:23:40.994Z,11.55
2023-04-08T21:26:17.022Z,11.54
2023-04-08T21:28:51.224Z,11.53
2023-04-08T21:31:25.674Z,11.53
2023-04-08T21:34:01.391Z,11.53
2023-04-08T21:36:35.498Z,11.48
2023-04-08T21:39:10.860Z,11.48
2023-04-08T21:41:43.670Z,11.49
2023-04-08T21:44:16.524Z,11.46
2023-04-08T21:46:56.418Z,11.43
2023-04-08T21:49:29.863Z,11.40
2023-04-08T21:52:03.253Z,11.38
2023-04-08T21:54:36.478Z,11.35
2023-04-08T21:57:11.399Z,11.32
2023-04-08T21:59:44.298Z,11.27
2023-04-08T22:02:18.640Z,11.21
2023-04-08T22:04:52.323Z,11.19
2023-04-08T22:07:25.691Z,11.17
2023-04-08T22:09:59.139Z,11.14
2023-04-08T22:12:34.267Z,11.12
2023-04-08T22:15:08.419Z,11.13
2023-04-08T22:17:43.181Z,11.12
2023-04-08T22:20:16.145Z,11.12
2023-04-08T22:22:49.002Z,11.09
2023-04-08T22:25:24.310Z,11.07
2023-04-08T22:27:57.368Z,11.05
2023-04-08T22:30:31.193Z,11.04
2023-04-08T22:33:05.266Z,11.12
2023-04-08T22:35:38.115Z,11.01
2023-04-08T22:38:10.956Z,10.96
2023-04-08T22:40:43.886Z,10.94
2023-04-08T22:43:16.710Z,10.93
2023-04-08T22:45:49.743Z,10.93
2023-04-08T22:48:24.017Z,10.93
2023-04-08T22:50:56.877Z,10.94
2023-04-08T22:53:29.722Z,10.95
2023-04-08T22:56:02.566Z,10.95
2023-04-08T22:58:35.750Z,10.94
2023-04-08T23:01:13.210Z,10.93
2023-04-08T23:03:47.564Z,10.91
2023-04-08T23:06:20.588Z,10.90
2023-04-08T23:08:53.625Z,10.90
2023-04-08T23:11:27.284Z,10.91
2023-04-08T23:14:00.129Z,10.92
2023-04-08T23:16:32.968Z,10.91
2023-04-08T23:19:07.151Z,10.90
2023-04-08T23:21:40.426Z,10.87
2023-04-08T23:24:13.212Z,10.87
2023-04-08T23:26:46.047Z,10.89
2023-04-08T23:29:18.844Z,10.89
2023-04-08T23:31:51.785Z,10.90
2023-04-08T23:34:26.025Z,10.89
2023-04-08T23:36:58.874Z,10.90
2023-04-08T23:39:31.751Z,10.91
2023-04-08T23:42:04.813Z,10.92
2023-04-08T23:44:37.633Z,10.91
2023-04-08T23:47:10.473Z,10.90
2023-04-08T23:49:44.632Z,10.90
2023-04-08T23:52:17.470Z,10.90
2023-04-08T23:54:51.033Z,10.89
2023-04-08T23:57:23.897Z,10.89
2023-04-08T23:59:57.823Z,10.89
